Time;durP1;ratioP1;P1;durP2;ratioP2;P2;SDS_P1;SDS_P2;PMS_P1;PMS_P2;Temp;Humidity;BMP_temperature;BMP_pressure;BME280_temperature;BME280_humidity;BME280_pressure;Samples;Min_cycle;Max_cycle;Signal;HPM_P1;HPM_P2
2022/03/18 00:00:39;;;;;;;26.70;13.40;;;0.80;48.60;;;;;;5095968;28;20045;-80
2022/03/18 00:03:05;;;;;;;25.90;13.25;;;0.80;48.60;;;;;;5114176;28;20020;-81
2022/03/18 00:05:32;;;;;;;25.42;13.30;;;0.80;48.90;;;;;;5114124;28;20030;-77
2022/03/18 00:07:58;;;;;;;21.98;12.82;;;0.70;49.30;;;;;;5113873;28;20028;-77
2022/03/18 00:10:23;;;;;;;31.40;12.60;;;0.70;49.10;;;;;;5095712;28;20396;-80
2022/03/18 00:12:52;;;;;;;22.50;13.85;;;0.60;49.10;;;;;;5095715;28;20114;-77
2022/03/18 00:15:18;;;;;;;19.10;12.80;;;0.60;49.40;;;;;;5113934;28;20034;-76
2022/03/18 00:17:44;;;;;;;30.25;14.02;;;0.60;49.60;;;;;;5113928;28;20110;-77
2022/03/18 00:20:11;;;;;;;21.52;13.73;;;0.60;49.70;;;;;;5113729;28;20058;-80
2022/03/18 00:22:37;;;;;;;21.63;12.32;;;0.60;49.70;;;;;;5113727;28;20137;-79
2022/03/18 00:25:04;;;;;;;24.92;12.88;;;0.50;49.90;;;;;;5095332;28;20110;-77
2022/03/18 00:27:30;;;;;;;23.48;13.50;;;0.50;50.00;;;;;;5095471;28;20092;-80
2022/03/18 00:29:56;;;;;;;22.77;12.77;;;0.50;50.30;;;;;;5113688;28;20020;-80
2022/03/18 00:32:22;;;;;;;26.52;12.68;;;0.40;50.30;;;;;;5113201;28;20048;-80
2022/03/18 00:34:48;;;;;;;24.38;13.77;;;0.30;50.50;;;;;;5095532;28;20023;-76
2022/03/18 00:37:14;;;;;;;21.27;12.70;;;0.30;50.60;;;;;;5095339;28;20028;-76
2022/03/18 00:39:39;;;;;;;24.88;13.75;;;0.30;50.80;;;;;;5113752;28;20016;-77
2022/03/18 00:42:05;;;;;;;28.13;14.70;;;0.30;50.90;;;;;;5095337;28;20032;-80
2022/03/18 00:44:31;;;;;;;27.98;13.85;;;0.30;51.10;;;;;;5113746;28;20015;-81
2022/03/18 00:46:57;;;;;;;25.02;13.27;;;0.20;51.20;;;;;;5095274;28;20026;-79
2022/03/18 00:52:07;;;;;;;24.20;12.63;;;0.10;51.40;;;;;;5113590;28;20035;-80
2022/03/18 00:54:37;;;;;;;25.27;13.52;;;0.10;51.60;;;;;;5113498;28;20065;-77
2022/03/18 00:57:04;;;;;;;23.35;12.38;;;0.00;51.70;;;;;;5095237;28;20024;-78
2022/03/18 00:59:31;;;;;;;25.05;13.20;;;0.00;51.90;;;;;;5095327;28;20022;-79
2022/03/18 01:01:57;;;;;;;26.70;13.32;;;0.00;52.00;;;;;;5095246;28;20027;-77
2022/03/18 01:04:24;;;;;;;20.95;12.20;;;-0.10;52.20;;;;;;5095151;28;20358;-77
2022/03/18 01:06:52;;;;;;;28.58;15.13;;;-0.10;52.20;;;;;;5095064;28;20016;-79
2022/03/18 01:09:18;;;;;;;22.33;13.02;;;-0.10;52.30;;;;;;5095490;28;20111;-79
2022/03/18 01:11:43;;;;;;;21.73;13.23;;;-0.10;52.40;;;;;;5095086;28;20481;-79
2022/03/18 01:14:09;;;;;;;20.33;12.15;;;-0.10;52.50;;;;;;5113289;28;20031;-79
2022/03/18 01:16:36;;;;;;;23.13;12.05;;;-0.10;52.50;;;;;;5095124;28;20028;-79
2022/03/18 01:19:01;;;;;;;20.30;11.85;;;-0.10;52.60;;;;;;5095038;28;20493;-80
2022/03/18 01:21:27;;;;;;;25.50;12.82;;;-0.20;52.50;;;;;;5095124;28;20055;-80
2022/03/18 01:23:52;;;;;;;20.65;12.70;;;-0.20;52.60;;;;;;5094896;28;20027;-78
2022/03/18 01:26:18;;;;;;;18.92;12.18;;;-0.20;52.60;;;;;;5095032;28;20031;-79
2022/03/18 01:28:44;;;;;;;19.08;10.90;;;-0.20;52.60;;;;;;5113196;28;20039;-80
2022/03/18 01:31:09;;;;;;;21.00;12.80;;;-0.20;52.70;;;;;;5094676;28;20019;-80
2022/03/18 01:33:36;;;;;;;26.33;13.32;;;-0.30;52.80;;;;;;5095921;28;20143;-78
2022/03/18 01:36:03;;;;;;;16.15;10.95;;;-0.30;52.90;;;;;;5116725;28;20443;-80
2022/03/18 01:38:28;;;;;;;21.20;11.82;;;-0.30;53.00;;;;;;5098500;28;20431;-77
2022/03/18 01:40:55;;;;;;;17.83;11.43;;;-0.30;53.00;;;;;;5098623;28;20024;-80
2022/03/18 01:43:20;;;;;;;21.60;11.93;;;-0.30;53.10;;;;;;5098445;28;20024;-80
2022/03/18 01:45:46;;;;;;;21.70;12.88;;;-0.30;53.20;;;;;;5116770;28;20496;-77
2022/03/18 01:48:12;;;;;;;20.58;12.23;;;-0.40;53.10;;;;;;5098312;28;20035;-76
2022/03/18 01:50:40;;;;;;;19.48;11.00;;;-0.40;53.30;;;;;;5098401;28;20023;-80
2022/03/18 01:53:07;;;;;;;23.40;12.98;;;-0.40;53.40;;;;;;5116544;28;20016;-79
2022/03/18 01:55:33;;;;;;;24.52;12.13;;;-0.40;53.60;;;;;;5098292;28;20392;-80
2022/03/18 01:57:59;;;;;;;18.75;11.32;;;-0.50;53.50;;;;;;5098227;28;20020;-80
2022/03/18 02:00:25;;;;;;;20.75;11.68;;;-0.60;53.60;;;;;;5116311;28;20098;-80
2022/03/18 02:02:51;;;;;;;19.50;11.20;;;-0.70;53.80;;;;;;5116436;28;20093;-80
2022/03/18 02:05:17;;;;;;;20.83;12.10;;;-0.70;54.00;;;;;;5098099;28;20027;-80
2022/03/18 02:07:45;;;;;;;18.77;11.90;;;-0.70;54.10;;;;;;5098079;28;20032;-80
2022/03/18 02:10:11;;;;;;;18.30;11.15;;;-0.70;54.20;;;;;;5116282;28;20022;-80
2022/03/18 02:12:37;;;;;;;19.17;11.45;;;-0.80;54.20;;;;;;5097973;28;20516;-81
2022/03/18 02:15:03;;;;;;;21.63;11.75;;;-0.80;54.30;;;;;;5097799;28;20085;-78
2022/03/18 02:17:29;;;;;;;19.90;10.77;;;-0.90;54.40;;;;;;5115987;28;20102;-78
2022/03/18 02:19:55;;;;;;;19.83;11.68;;;-0.90;54.60;;;;;;5097806;28;20072;-76
2022/03/18 02:22:26;;;;;;;19.58;12.50;;;-1.00;54.70;;;;;;5116296;28;20370;-76
2022/03/18 02:24:54;;;;;;;23.35;12.27;;;-1.10;55.20;;;;;;5097815;28;20030;-77
2022/03/18 02:27:20;;;;;;;20.92;12.07;;;-1.20;55.60;;;;;;5097666;28;20042;-76
2022/03/18 02:29:46;;;;;;;22.63;12.30;;;-1.30;56.00;;;;;;5115848;28;20024;-76
2022/03/18 02:32:13;;;;;;;24.98;12.88;;;-1.30;56.50;;;;;;5115387;28;20028;-80
2022/03/18 02:34:40;;;;;;;20.45;11.07;;;-1.40;56.80;;;;;;5115826;28;20027;-80
2022/03/18 02:37:07;;;;;;;25.63;14.35;;;-1.40;57.00;;;;;;5115756;28;20023;-76
2022/03/18 02:39:34;;;;;;;21.55;13.65;;;-1.40;57.10;;;;;;5097436;28;20024;-77
2022/03/18 02:42:00;;;;;;;25.25;12.10;;;-1.40;57.40;;;;;;5115716;28;20034;-79
2022/03/18 02:44:26;;;;;;;30.83;13.45;;;-1.50;57.60;;;;;;5096902;28;20016;-76
2022/03/18 02:46:52;;;;;;;26.80;12.90;;;-1.50;57.70;;;;;;5096591;28;20028;-77
2022/03/18 02:49:19;;;;;;;20.50;11.90;;;-1.50;57.80;;;;;;5115385;28;20389;-79
2022/03/18 02:51:45;;;;;;;23.75;13.50;;;-1.50;57.80;;;;;;5115454;28;20103;-80
2022/03/18 02:54:12;;;;;;;24.60;13.18;;;-1.50;58.00;;;;;;5097295;28;20059;-80
2022/03/18 02:56:38;;;;;;;23.88;12.15;;;-1.60;57.90;;;;;;5115312;28;20103;-76
2022/03/18 02:59:04;;;;;;;26.42;13.88;;;-1.60;58.20;;;;;;5096945;28;20131;-81
2022/03/18 03:01:30;;;;;;;21.85;11.60;;;-1.60;58.40;;;;;;5115189;28;20020;-77
2022/03/18 03:03:57;;;;;;;23.67;13.63;;;-1.60;58.40;;;;;;5115245;28;20030;-81
2022/03/18 03:09:08;;;;;;;24.73;13.40;;;-1.70;58.80;;;;;;5115248;28;20042;-77
2022/03/18 03:11:34;;;;;;;22.52;13.55;;;-1.70;59.00;;;;;;5115107;28;20028;-81
2022/03/18 03:14:00;;;;;;;22.27;13.00;;;-1.80;59.10;;;;;;5115067;28;20016;-76
2022/03/18 03:16:26;;;;;;;22.35;13.65;;;-1.80;59.20;;;;;;5096670;28;20026;-80
2022/03/18 03:18:52;;;;;;;26.42;13.10;;;-1.80;59.50;;;;;;5096651;28;20015;-81
2022/03/18 03:21:18;;;;;;;20.45;12.38;;;-1.90;59.60;;;;;;5114918;28;20427;-76
2022/03/18 03:23:44;;;;;;;25.23;13.68;;;-1.90;59.80;;;;;;5096535;28;20020;-81
2022/03/18 03:26:10;;;;;;;23.70;14.38;;;-1.90;59.90;;;;;;5114828;28;20015;-82
2022/03/18 03:28:36;;;;;;;26.10;14.57;;;-2.00;59.90;;;;;;5114729;28;20030;-82
2022/03/18 03:31:02;;;;;;;31.00;13.77;;;-2.00;59.90;;;;;;5096502;28;20030;-77
2022/03/18 03:33:27;;;;;;;21.90;13.93;;;-2.00;60.00;;;;;;5095898;28;20050;-77
2022/03/18 03:35:54;;;;;;;24.42;14.30;;;-2.00;59.80;;;;;;5114606;28;20069;-81
2022/03/18 03:38:21;;;;;;;27.27;13.82;;;-2.10;59.90;;;;;;5114179;28;20027;-76
2022/03/18 03:40:47;;;;;;;26.63;14.77;;;-2.10;60.10;;;;;;5096446;28;20122;-81
2022/03/18 03:43:13;;;;;;;20.40;12.00;;;-2.10;60.00;;;;;;5096284;28;20031;-82
2022/03/18 03:45:39;;;;;;;24.20;13.40;;;-2.10;60.00;;;;;;5114423;28;20027;-82
2022/03/18 03:48:06;;;;;;;24.85;13.40;;;-2.10;59.90;;;;;;5114273;28;20036;-81
2022/03/18 03:50:32;;;;;;;28.13;13.32;;;-2.10;59.80;;;;;;5114332;28;20030;-82
2022/03/18 03:52:57;;;;;;;24.10;13.35;;;-2.10;59.60;;;;;;5095882;28;20118;-82
2022/03/18 03:55:23;;;;;;;21.98;14.32;;;-2.00;59.50;;;;;;5114317;28;20051;-81
2022/03/18 03:57:49;;;;;;;24.10;12.05;;;-2.00;59.50;;;;;;5095449;28;20434;-82
2022/03/18 04:00:15;;;;;;;23.33;13.82;;;-2.00;59.40;;;;;;5113992;28;20032;-78
2022/03/18 04:02:43;;;;;;;23.27;12.65;;;-2.00;59.40;;;;;;5114215;28;20035;-76
2022/03/18 04:05:10;;;;;;;22.95;12.80;;;-2.00;59.30;;;;;;5114142;28;20465;-78
2022/03/18 04:07:37;;;;;;;26.05;12.85;;;-2.10;59.30;;;;;;5095788;28;20473;-76
2022/03/18 04:10:04;;;;;;;15.02;11.48;;;-2.10;59.40;;;;;;5113992;28;20106;-82
2022/03/18 04:12:32;;;;;;;24.15;13.18;;;-2.10;59.50;;;;;;5113954;28;20027;-77
2022/03/18 04:14:58;;;;;;;19.38;11.57;;;-2.10;59.60;;;;;;5095874;28;20492;-81
2022/03/18 04:17:26;;;;;;;18.50;11.57;;;-2.20;59.50;;;;;;5113953;28;20080;-76
2022/03/18 04:19:52;;;;;;;17.10;12.27;;;-2.20;59.60;;;;;;5095442;28;20469;-81
2022/03/18 04:22:17;;;;;;;20.75;12.85;;;-2.20;59.60;;;;;;5095595;28;20390;-80
2022/03/18 04:24:43;;;;;;;25.13;12.13;;;-2.20;59.50;;;;;;5114009;28;20065;-81
2022/03/18 04:27:08;;;;;;;22.33;12.52;;;-2.30;59.70;;;;;;5113670;28;20028;-81
2022/03/18 04:29:34;;;;;;;22.20;12.05;;;-2.30;59.80;;;;;;5113806;28;20088;-77
2022/03/18 04:32:00;;;;;;;22.88;13.18;;;-2.30;59.70;;;;;;5095209;28;20024;-81
2022/03/18 04:34:26;;;;;;;16.90;10.57;;;-2.30;59.90;;;;;;5113647;28;20024;-77
2022/03/18 04:36:52;;;;;;;18.08;10.75;;;-2.30;59.80;;;;;;5095329;28;20477;-81
2022/03/18 04:39:17;;;;;;;17.70;11.65;;;-2.30;59.90;;;;;;5095278;28;20118;-76
2022/03/18 04:41:43;;;;;;;20.58;11.93;;;-2.30;60.00;;;;;;5095412;28;20019;-76
2022/03/18 04:44:08;;;;;;;19.42;11.27;;;-2.30;59.90;;;;;;5113901;28;20027;-77
2022/03/18 04:46:34;;;;;;;22.13;11.70;;;-2.30;59.90;;;;;;5095467;28;20054;-80
2022/03/18 04:49:00;;;;;;;26.33;12.30;;;-2.30;59.90;;;;;;5095203;28;20032;-80
2022/03/18 04:51:26;;;;;;;15.82;11.57;;;-2.20;59.80;;;;;;5095333;28;20028;-80
2022/03/18 04:53:52;;;;;;;20.60;11.65;;;-2.20;59.80;;;;;;5095181;28;20028;-80
2022/03/18 04:59:03;;;;;;;26.45;12.38;;;-2.20;59.80;;;;;;5113794;28;20088;-80
2022/03/18 05:01:29;;;;;;;17.00;10.68;;;-2.20;59.80;;;;;;5113649;28;20016;-77
2022/03/18 05:03:55;;;;;;;20.08;11.93;;;-2.20;59.90;;;;;;5091518;28;20031;-77
2022/03/18 05:06:20;;;;;;;17.50;12.25;;;-2.20;60.50;;;;;;5074847;28;20024;-76
2022/03/18 05:08:46;;;;;;;20.35;12.48;;;-2.20;59.80;;;;;;5075990;28;20078;-80
2022/03/18 05:11:15;;;;;;;27.02;12.57;;;-2.10;59.80;;;;;;5096948;28;20028;-81
2022/03/18 05:13:42;;;;;;;23.13;12.20;;;-2.20;59.70;;;;;;5096823;28;20016;-81
2022/03/18 05:16:08;;;;;;;22.42;11.88;;;-2.10;59.70;;;;;;5096804;28;20419;-76
2022/03/18 05:18:33;;;;;;;18.98;11.32;;;-2.10;59.70;;;;;;5096810;28;20028;-81
2022/03/18 05:20:59;;;;;;;17.98;12.18;;;-2.00;59.60;;;;;;5096836;28;20070;-77
2022/03/18 05:23:24;;;;;;;14.73;9.68;;;-2.00;59.40;;;;;;5078671;28;20025;-81
2022/03/18 05:25:50;;;;;;;18.63;10.80;;;-2.00;59.30;;;;;;5096721;28;20539;-78
2022/03/18 05:28:17;;;;;;;22.70;12.07;;;-1.90;59.30;;;;;;5078456;28;20028;-76
2022/03/18 05:30:43;;;;;;;24.77;12.77;;;-1.90;59.10;;;;;;5078667;28;20020;-81
2022/03/18 05:33:09;;;;;;;16.50;10.73;;;-1.90;59.20;;;;;;5074759;28;20097;-81
2022/03/18 05:35:34;;;;;;;20.20;11.45;;;-1.80;59.00;;;;;;5075048;28;20021;-81
2022/03/18 05:38:00;;;;;;;19.30;11.15;;;-1.80;59.10;;;;;;5076126;28;20381;-81
2022/03/18 05:40:26;;;;;;;20.75;11.60;;;-1.80;59.10;;;;;;5076328;28;20024;-77
2022/03/18 05:42:51;;;;;;;27.27;12.13;;;-1.80;59.00;;;;;;5076154;28;20393;-81
2022/03/18 05:45:17;;;;;;;18.42;10.70;;;-1.80;59.00;;;;;;5077876;28;20033;-81
2022/03/18 05:47:43;;;;;;;15.73;10.70;;;-1.80;59.00;;;;;;5096062;28;20493;-81
2022/03/18 05:50:09;;;;;;;23.90;11.48;;;-1.80;59.00;;;;;;5077867;28;20082;-76
2022/03/18 05:52:36;;;;;;;17.95;10.73;;;-1.70;59.00;;;;;;5096133;28;20081;-81
2022/03/18 05:55:03;;;;;;;18.60;11.43;;;-1.70;59.10;;;;;;5094317;28;20485;-81
2022/03/18 05:57:29;;;;;;;20.17;11.35;;;-1.70;59.20;;;;;;5095384;28;20504;-81
2022/03/18 05:59:57;;;;;;;18.15;11.52;;;-1.70;59.00;;;;;;5077325;28;20020;-81
2022/03/18 06:02:23;;;;;;;23.42;13.63;;;-1.60;59.10;;;;;;5096155;28;20080;-77
2022/03/18 06:04:49;;;;;;;28.80;14.43;;;-1.60;59.00;;;;;;5091763;28;20031;-82
2022/03/18 06:07:16;;;;;;;19.17;12.32;;;-1.60;59.20;;;;;;5076506;28;20040;-76
2022/03/18 06:12:25;;;;;;;24.63;12.23;;;-1.50;59.30;;;;;;5094756;28;20039;-76
2022/03/18 06:14:51;;;;;;;23.88;12.15;;;-1.50;59.10;;;;;;5094557;28;20024;-77
2022/03/18 06:17:17;;;;;;;18.45;12.07;;;-1.50;59.70;;;;;;5076663;28;20036;-75
2022/03/18 06:19:43;;;;;;;27.58;13.52;;;-1.50;59.10;;;;;;5094267;28;20514;-84
2022/03/18 06:22:09;;;;;;;22.67;13.68;;;-1.40;58.90;;;;;;5076564;28;20106;-82
2022/03/18 06:24:35;;;;;;;20.45;11.68;;;-1.40;58.90;;;;;;5076060;28;20036;-77
2022/03/18 06:27:01;;;;;;;21.45;12.77;;;-1.30;58.80;;;;;;5094034;28;20028;-80
2022/03/18 06:29:28;;;;;;;21.83;12.38;;;-1.30;58.60;;;;;;5094165;28;20040;-77
2022/03/18 06:31:54;;;;;;;23.58;11.90;;;-1.20;58.60;;;;;;5090896;28;20028;-78
2022/03/18 06:34:23;;;;;;;25.65;11.57;;;-1.10;58.50;;;;;;5092675;28;20046;-78
2022/03/18 06:36:53;;;;;;;25.23;11.80;;;-1.10;58.30;;;;;;5111899;28;20016;-79
2022/03/18 06:39:20;;;;;;;20.60;11.48;;;-1.00;58.30;;;;;;5094672;28;20035;-78
2022/03/18 06:41:46;;;;;;;17.35;10.77;;;-1.00;57.80;;;;;;5094203;28;20030;-78
2022/03/18 06:44:12;;;;;;;20.65;11.38;;;-0.90;57.70;;;;;;5093681;28;20027;-79
2022/03/18 06:46:38;;;;;;;22.20;11.27;;;-0.80;57.50;;;;;;5113452;28;20426;-79
2022/03/18 06:49:05;;;;;;;22.02;12.30;;;-0.80;57.10;;;;;;5095072;28;20035;-79
2022/03/18 06:51:31;;;;;;;20.08;12.07;;;-0.70;57.10;;;;;;5113592;28;20432;-79
2022/03/18 06:53:57;;;;;;;16.25;11.15;;;-0.60;56.70;;;;;;5095351;28;20016;-79
2022/03/18 06:56:23;;;;;;;15.90;11.68;;;-0.50;56.50;;;;;;5097214;28;20444;-79
2022/03/18 06:58:49;;;;;;;14.90;10.43;;;-0.30;56.30;;;;;;5096722;28;20043;-79
2022/03/18 07:01:14;;;;;;;20.70;12.00;;;-0.30;56.10;;;;;;5096725;28;20110;-79
2022/03/18 07:03:40;;;;;;;31.33;14.40;;;-0.20;55.60;;;;;;5096853;28;20050;-79
2022/03/18 07:06:06;;;;;;;19.52;11.40;;;-0.10;55.60;;;;;;5096250;28;20026;-79
2022/03/18 07:08:33;;;;;;;15.77;10.73;;;0.00;55.20;;;;;;5095927;28;20122;-79
2022/03/18 07:10:59;;;;;;;18.08;9.77;;;0.00;54.70;;;;;;5114138;28;20032;-79
2022/03/18 07:13:25;;;;;;;16.95;11.15;;;0.00;54.60;;;;;;5096102;28;20020;-79
2022/03/18 07:15:50;;;;;;;17.65;10.35;;;0.00;54.50;;;;;;5114221;28;20031;-80
2022/03/18 07:18:16;;;;;;;19.42;11.38;;;0.00;54.20;;;;;;5121505;27;20488;-79
2022/03/18 07:20:41;;;;;;;18.30;11.18;;;0.10;54.00;;;;;;5095691;28;20474;-79
2022/03/18 07:23:07;;;;;;;20.35;11.68;;;0.10;53.80;;;;;;5101334;27;20014;-79
2022/03/18 07:25:36;;;;;;;15.25;8.98;;;0.20;53.90;;;;;;5106951;27;20025;-79
2022/03/18 07:28:02;;;;;;;16.63;9.95;;;0.30;53.50;;;;;;5124442;27;20028;-79
2022/03/18 07:30:28;;;;;;;18.38;12.23;;;0.30;53.40;;;;;;5116528;27;20483;-79
2022/03/18 07:32:54;;;;;;;16.60;9.90;;;0.50;53.60;;;;;;5111798;27;20052;-79
2022/03/18 07:35:21;;;;;;;22.00;11.70;;;0.50;53.50;;;;;;5098046;27;20413;-79
2022/03/18 07:37:48;;;;;;;18.40;10.52;;;0.60;53.50;;;;;;5120384;27;20102;-79
2022/03/18 07:40:14;;;;;;;18.38;10.60;;;0.60;53.50;;;;;;5114771;28;20376;-79
2022/03/18 07:42:45;;;;;;;19.40;10.57;;;0.60;53.50;;;;;;5113473;28;20008;-79
2022/03/18 07:45:12;;;;;;;18.52;11.40;;;0.60;53.50;;;;;;5123984;27;20019;-79
2022/03/18 07:47:38;;;;;;;19.48;10.90;;;0.70;53.30;;;;;;5100804;27;20027;-79
2022/03/18 07:50:05;;;;;;;17.42;10.18;;;0.60;53.10;;;;;;5101022;28;20031;-79
2022/03/18 07:52:31;;;;;;;17.80;10.45;;;0.70;52.90;;;;;;5095551;28;20451;-79
2022/03/18 07:54:56;;;;;;;15.27;9.45;;;0.90;52.80;;;;;;5095231;28;20114;-80
2022/03/18 07:57:22;;;;;;;15.88;8.82;;;1.00;52.40;;;;;;5113225;28;20111;-79
2022/03/18 07:59:47;;;;;;;17.95;9.63;;;1.30;51.90;;;;;;5123298;27;20082;-79
2022/03/18 08:02:13;;;;;;;16.73;9.95;;;1.30;51.00;;;;;;5095305;28;20427;-79
2022/03/18 08:04:39;;;;;;;14.73;8.85;;;1.50;50.60;;;;;;5108979;27;20433;-80
2022/03/18 08:07:05;;;;;;;14.20;10.25;;;1.60;50.20;;;;;;5106848;27;20079;-79
2022/03/18 08:09:31;;;;;;;19.80;10.75;;;1.80;49.80;;;;;;5114191;28;20024;-79
2022/03/18 08:11:57;;;;;;;20.35;10.02;;;2.00;50.30;;;;;;5114023;28;20499;-79
2022/03/18 08:14:24;;;;;;;17.05;9.52;;;2.10;50.20;;;;;;5114137;28;20015;-79
2022/03/18 08:16:50;;;;;;;21.48;9.95;;;2.30;50.20;;;;;;5095780;28;20187;-79
2022/03/18 08:19:16;;;;;;;15.23;10.43;;;2.50;48.90;;;;;;5114012;28;20431;-80
2022/03/18 08:21:42;;;;;;;13.75;9.68;;;2.50;47.90;;;;;;5113995;28;20081;-79
2022/03/18 08:24:09;;;;;;;17.45;10.05;;;2.60;47.80;;;;;;5095700;28;20064;-79
2022/03/18 08:26:37;;;;;;;12.68;8.77;;;2.70;47.60;;;;;;5111580;28;20022;-79
2022/03/18 08:29:07;;;;;;;15.55;9.32;;;2.80;48.40;;;;;;5112788;27;20443;-79
2022/03/18 08:31:33;;;;;;;18.40;10.30;;;2.90;47.50;;;;;;5094294;28;20023;-80
2022/03/18 08:34:00;;;;;;;15.65;8.38;;;2.80;47.20;;;;;;5100304;28;20040;-80
2022/03/18 08:36:25;;;;;;;14.48;9.57;;;3.00;46.70;;;;;;5099475;28;20516;-80
2022/03/18 08:38:52;;;;;;;13.30;9.55;;;3.10;46.40;;;;;;5077883;28;20067;-79
2022/03/18 08:41:17;;;;;;;14.65;9.88;;;3.30;46.60;;;;;;5083629;28;20032;-76
2022/03/18 08:43:44;;;;;;;14.52;9.63;;;3.30;46.30;;;;;;5087231;28;20452;-76
2022/03/18 08:46:09;;;;;;;15.30;9.48;;;3.40;45.70;;;;;;5078908;28;20016;-76
2022/03/18 08:48:35;;;;;;;16.13;9.65;;;3.70;45.70;;;;;;5082164;28;20455;-77
2022/03/18 08:51:01;;;;;;;15.05;9.02;;;3.90;45.40;;;;;;5097451;28;20107;-77
2022/03/18 08:53:26;;;;;;;16.15;8.85;;;3.80;44.10;;;;;;5079335;28;20039;-77
2022/03/18 08:55:54;;;;;;;14.02;8.82;;;3.90;44.50;;;;;;5097409;28;20069;-78
2022/03/18 08:58:22;;;;;;;15.68;8.93;;;4.00;44.50;;;;;;5079055;28;20454;-78
2022/03/18 09:00:47;;;;;;;13.85;8.40;;;4.10;43.90;;;;;;5077171;28;20024;-76
2022/03/18 09:03:14;;;;;;;13.88;8.93;;;4.20;43.40;;;;;;5096355;28;20027;-76
2022/03/18 09:05:41;;;;;;;14.82;9.63;;;4.30;43.30;;;;;;5096470;28;20481;-77
2022/03/18 09:08:07;;;;;;;14.52;9.38;;;4.40;43.30;;;;;;5078237;28;20032;-77
2022/03/18 09:10:33;;;;;;;17.20;9.15;;;4.30;43.10;;;;;;5078003;28;20103;-77
2022/03/18 09:13:00;;;;;;;12.77;8.13;;;4.20;42.70;;;;;;5080830;28;20169;-76
2022/03/18 09:15:27;;;;;;;16.33;8.70;;;4.30;42.20;;;;;;5086796;28;20016;-78
2022/03/18 09:17:53;;;;;;;17.02;8.38;;;4.20;42.60;;;;;;5077531;28;20048;-76
2022/03/18 09:20:19;;;;;;;15.55;10.00;;;4.30;42.90;;;;;;5075345;28;20064;-76
2022/03/18 09:22:45;;;;;;;17.25;10.07;;;4.40;42.60;;;;;;5100837;28;20022;-78
2022/03/18 09:25:12;;;;;;;15.77;8.75;;;4.40;42.70;;;;;;5100067;28;20032;-78
2022/03/18 09:27:38;;;;;;;15.18;8.82;;;4.60;42.90;;;;;;5100625;28;20093;-79
2022/03/18 09:30:04;;;;;;;14.80;8.75;;;4.60;42.00;;;;;;5099611;28;20012;-79
2022/03/18 09:32:30;;;;;;;15.30;8.90;;;4.70;42.00;;;;;;5120296;27;20051;-80
2022/03/18 09:34:57;;;;;;;14.32;8.82;;;4.60;41.80;;;;;;5104117;28;20030;-77
2022/03/18 09:37:23;;;;;;;12.82;8.68;;;4.80;41.80;;;;;;5098850;28;20027;-77
2022/03/18 09:39:48;;;;;;;12.80;7.10;;;4.80;41.60;;;;;;5098771;28;20110;-77
2022/03/18 09:42:15;;;;;;;19.27;10.25;;;4.80;41.40;;;;;;5098630;28;20063;-78
2022/03/18 09:44:41;;;;;;;18.55;8.88;;;4.90;41.70;;;;;;5116529;28;20064;-78
2022/03/18 09:47:08;;;;;;;17.15;9.35;;;4.90;41.80;;;;;;5098198;28;20019;-77
2022/03/18 09:49:35;;;;;;;12.82;7.40;;;5.00;41.20;;;;;;5098358;28;20072;-78
2022/03/18 09:52:02;;;;;;;10.93;6.97;;;5.00;40.70;;;;;;5114612;28;20092;-77
2022/03/18 09:54:32;;;;;;;12.43;8.02;;;5.00;40.60;;;;;;5113634;28;20068;-78
2022/03/18 09:57:00;;;;;;;12.98;9.27;;;5.00;40.30;;;;;;5114596;28;20066;-77
2022/03/18 09:59:30;;;;;;;13.40;8.93;;;5.10;40.50;;;;;;5096348;28;20369;-78
2022/03/18 10:02:28;;;;;;;13.68;8.88;;;5.00;40.30;;;;;;5096116;28;20671;-78
2022/03/18 10:04:56;;;;;;;16.30;9.55;;;5.20;41.10;;;;;;5096337;28;20404;-79
2022/03/18 10:07:22;;;;;;;13.25;8.95;;;5.30;40.80;;;;;;5098256;28;20099;-78
2022/03/18 10:09:59;;;;;;;10.88;8.05;;;5.30;39.90;;;;;;5098272;28;20038;-78
2022/03/18 10:12:33;;;;;;;11.43;8.93;;;5.40;39.80;;;;;;5116564;28;20045;-77
2022/03/18 10:15:13;;;;;;;15.27;8.38;;;5.30;39.70;;;;;;5116450;28;20050;-78
2022/03/18 10:17:48;;;;;;;12.45;8.93;;;5.40;39.40;;;;;;5097984;28;20027;-78
2022/03/18 10:20:28;;;;;;;14.10;8.77;;;5.40;39.20;;;;;;5116288;28;20044;-77
2022/03/18 10:22:58;;;;;;;17.50;10.02;;;5.50;39.50;;;;;;5116301;28;20098;-78
2022/03/18 10:25:37;;;;;;;15.52;9.52;;;5.50;39.30;;;;;;5097867;28;20012;-77
2022/03/18 10:28:04;;;;;;;18.23;9.88;;;5.70;39.00;;;;;;5097783;28;20036;-77
2022/03/18 10:30:31;;;;;;;14.35;8.57;;;5.70;38.30;;;;;;5097873;28;20020;-77
2022/03/18 10:32:57;;;;;;;14.60;8.77;;;5.80;37.90;;;;;;5097504;28;20063;-77
2022/03/18 10:38:35;;;;;;;14.38;8.68;;;5.80;38.20;;;;;;5116098;28;20557;-78
2022/03/18 10:41:07;;;;;;;12.60;9.25;;;5.90;38.30;;;;;;5097528;28;20023;-79
2022/03/18 10:43:54;;;;;;;23.30;10.48;;;6.00;38.30;;;;;;5097391;28;20020;-78
2022/03/18 10:46:22;;;;;;;15.45;8.65;;;6.10;39.00;;;;;;5097236;28;20115;-77
2022/03/18 10:49:07;;;;;;;11.70;8.02;;;6.10;37.70;;;;;;5115488;28;20031;-77
2022/03/18 10:51:34;;;;;;;14.63;8.05;;;6.00;36.70;;;;;;5096403;28;20038;-79
2022/03/18 10:54:00;;;;;;;13.93;9.05;;;6.10;37.20;;;;;;5096443;28;20039;-78
2022/03/18 10:56:26;;;;;;;11.43;7.50;;;6.10;37.10;;;;;;5096272;28;20058;-77
2022/03/18 10:58:52;;;;;;;13.68;8.18;;;6.20;37.30;;;;;;5080340;28;20028;-78
2022/03/18 11:01:19;;;;;;;14.35;8.40;;;6.20;36.90;;;;;;5094427;28;20031;-78
2022/03/18 11:03:45;;;;;;;17.75;8.50;;;6.30;37.00;;;;;;5094866;28;20024;-78
2022/03/18 11:06:13;;;;;;;13.30;8.50;;;6.30;37.10;;;;;;5094360;28;20038;-78
2022/03/18 11:08:45;;;;;;;12.63;8.77;;;6.20;36.90;;;;;;5095816;28;20473;-78
2022/03/18 11:11:18;;;;;;;15.32;8.48;;;6.20;36.90;;;;;;5095800;28;20106;-79
2022/03/18 11:14:10;;;;;;;10.95;8.25;;;6.30;37.20;;;;;;5114078;28;20047;-79
2022/03/18 11:16:38;;;;;;;12.93;8.55;;;6.20;36.50;;;;;;5113637;28;20139;-79
2022/03/18 11:19:09;;;;;;;11.00;7.78;;;6.30;36.50;;;;;;5113648;28;20393;-80
2022/03/18 11:21:38;;;;;;;10.85;8.23;;;6.40;36.80;;;;;;5095330;28;20027;-79
2022/03/18 11:24:06;;;;;;;12.43;8.10;;;6.40;36.80;;;;;;5114033;28;20050;-79
2022/03/18 11:26:34;;;;;;;17.05;8.13;;;6.40;36.50;;;;;;5112843;28;20028;-80
2022/03/18 11:29:23;;;;;;;15.23;8.18;;;6.40;35.90;;;;;;5113526;28;20042;-79
2022/03/18 11:32:15;;;;;;;15.80;9.13;;;6.40;36.00;;;;;;5094530;28;20031;-79
2022/03/18 11:34:57;;;;;;;13.20;8.13;;;6.40;35.80;;;;;;5068479;28;21146;-79
2022/03/18 11:37:25;;;;;;;10.93;7.88;;;6.50;35.60;;;;;;5072600;28;20106;-80
2022/03/18 11:39:51;;;;;;;17.60;8.75;;;6.50;35.00;;;;;;5072879;28;20016;-80
2022/03/18 11:42:22;;;;;;;14.48;7.65;;;6.50;34.60;;;;;;5072709;28;20398;-79
2022/03/18 11:44:53;;;;;;;13.38;8.95;;;6.60;34.90;;;;;;5054681;28;20027;-80
2022/03/18 11:47:31;;;;;;;14.70;8.95;;;6.50;34.30;;;;;;5054579;28;20033;-80
2022/03/18 11:49:58;;;;;;;14.70;9.40;;;6.40;34.40;;;;;;5070918;28;20040;-80
2022/03/18 11:52:25;;;;;;;12.90;7.15;;;6.50;34.50;;;;;;5054531;28;20493;-79
2022/03/18 11:54:55;;;;;;;12.63;8.05;;;6.70;34.80;;;;;;5054570;28;20021;-79
2022/03/18 11:57:28;;;;;;;12.20;7.85;;;6.80;34.80;;;;;;5054622;28;20386;-79
2022/03/18 11:59:55;;;;;;;15.32;9.15;;;6.80;34.40;;;;;;5072687;28;20028;-79
2022/03/18 12:02:32;;;;;;;13.00;8.50;;;6.90;35.40;;;;;;5054464;28;20055;-78
2022/03/18 12:04:58;;;;;;;13.05;8.63;;;7.00;35.70;;;;;;5062124;28;20099;-79
2022/03/18 12:07:30;;;;;;;15.50;8.80;;;7.20;35.40;;;;;;5074305;28;20028;-79
2022/03/18 12:10:08;;;;;;;13.90;8.63;;;7.20;35.40;;;;;;5090481;28;20492;-79
2022/03/18 12:12:41;;;;;;;14.95;8.40;;;7.20;35.30;;;;;;5114150;28;20051;-78
2022/03/18 12:15:08;;;;;;;13.98;8.98;;;7.20;35.30;;;;;;5095758;28;20020;-79
2022/03/18 12:17:41;;;;;;;15.73;8.98;;;7.20;34.70;;;;;;5113728;28;20023;-78
2022/03/18 12:20:09;;;;;;;17.70;8.40;;;7.10;34.40;;;;;;5095618;28;20115;-78
2022/03/18 12:22:39;;;;;;;12.23;8.85;;;7.20;34.90;;;;;;5095579;28;20047;-80
2022/03/18 12:25:06;;;;;;;12.73;8.05;;;7.20;34.80;;;;;;5113937;28;20463;-78
2022/03/18 12:27:36;;;;;;;16.85;10.23;;;7.30;34.50;;;;;;5094428;28;20042;-78
2022/03/18 12:30:10;;;;;;;12.07;8.93;;;7.30;34.20;;;;;;5096057;28;20088;-78
2022/03/18 12:32:51;;;;;;;11.85;8.73;;;7.40;34.60;;;;;;5096567;28;20044;-78
2022/03/18 12:35:18;;;;;;;14.88;8.95;;;7.30;34.10;;;;;;5113795;28;20385;-79
2022/03/18 12:37:46;;;;;;;11.77;8.07;;;7.20;33.60;;;;;;5112586;28;20016;-79
2022/03/18 12:40:14;;;;;;;11.65;7.53;;;7.20;33.80;;;;;;5112433;28;20069;-79
2022/03/18 12:42:56;;;;;;;12.60;7.88;;;7.20;33.60;;;;;;5112912;28;20028;-78
2022/03/18 12:45:38;;;;;;;15.35;8.77;;;7.20;33.50;;;;;;5105108;28;20392;-78
2022/03/18 12:48:15;;;;;;;10.50;7.82;;;7.30;33.40;;;;;;5092465;28;20110;-78
2022/03/18 12:50:53;;;;;;;13.50;8.35;;;7.50;33.60;;;;;;5108979;28;20056;-79